Time;durP1;ratioP1;P1;durP2;ratioP2;P2;SDS_P1;SDS_P2;PMS_P1;PMS_P2;Temp;Humidity;BMP_temperature;BMP_pressure;BME280_temperature;BME280_humidity;BME280_pressure;Samples;Min_cycle;Max_cycle;Signal;HPM_P1;HPM_P2
2022/02/28 00:02:04;;;;;;;;;;;;;;;-2.69;65.26;103248.63;4861563;29;20361;-64
2022/02/28 00:04:30;;;;;;;;;;;;;;;-2.71;65.10;103245.16;4862078;29;19924;-63
2022/02/28 00:06:55;;;;;;;;;;;;;;;-2.73;65.38;103239.09;4861889;29;20038;-64
2022/02/28 00:09:21;;;;;;;;;;;;;;;-2.74;65.63;103237.38;4861955;29;20006;-63
2022/02/28 00:11:46;;;;;;;;;;;;;;;-2.75;65.83;103235.66;4861961;29;19924;-62
2022/02/28 00:14:11;;;;;;;;;;;;;;;-2.75;66.46;103233.91;4861567;29;19980;-62
2022/02/28 00:16:37;;;;;;;;;;;;;;;-2.76;65.67;103226.09;4861378;29;19924;-67
2022/02/28 00:19:02;;;;;;;;;;;;;;;-2.73;65.81;103226.06;4861214;29;19989;-62
2022/02/28 00:21:28;;;;;;;;;;;;;;;-2.72;66.13;103220.81;4860916;29;19994;-65
2022/02/28 00:23:55;;;;;;;;;;;;;;;-2.70;65.73;103207.75;4860951;29;19985;-64
2022/02/28 00:26:20;;;;;;;;;;;;;;;-2.75;66.15;103220.88;4861069;29;20403;-66
2022/02/28 00:28:46;;;;;;;;;;;;;;;-2.74;66.04;103221.72;4860912;29;19981;-64
2022/02/28 00:31:11;;;;;;;;;;;;;;;-2.76;66.47;103228.69;4830441;29;19931;-64
2022/02/28 00:33:37;;;;;;;;;;;;;;;-2.75;66.38;103225.22;4861021;29;19928;-62
2022/02/28 00:36:02;;;;;;;;;;;;;;;-2.78;66.64;103222.66;4860544;29;20321;-62
2022/02/28 00:38:28;;;;;;;;;;;;;;;-2.78;66.65;103226.13;4860809;29;19951;-65
2022/02/28 00:40:53;;;;;;;;;;;;;;;-2.78;66.61;103218.28;4860648;29;19980;-62
2022/02/28 00:43:18;;;;;;;;;;;;;;;-2.77;67.29;103221.75;4860764;29;19924;-62
2022/02/28 00:45:44;;;;;;;;;;;;;;;-2.79;67.58;103218.31;4861664;29;19924;-64
2022/02/28 00:48:09;;;;;;;;;;;;;;;-2.79;66.90;103213.09;4860658;29;20384;-63
2022/02/28 00:50:35;;;;;;;;;;;;;;;-2.79;67.59;103205.28;4860710;29;19924;-63
2022/02/28 00:53:00;;;;;;;;;;;;;;;-2.83;67.54;103210.53;4860368;29;19959;-63
2022/02/28 00:55:25;;;;;;;;;;;;;;;-2.79;67.30;103218.31;4860688;29;19927;-64
2022/02/28 00:57:51;;;;;;;;;;;;;;;-2.80;68.08;103212.22;4860379;29;19924;-62
2022/02/28 01:00:17;;;;;;;;;;;;;;;-2.81;68.35;103210.50;4860690;29;19931;-63
2022/02/28 01:02:44;;;;;;;;;;;;;;;-2.82;68.19;103209.63;4860753;29;19924;-64
2022/02/28 01:05:09;;;;;;;;;;;;;;;-2.87;69.00;103195.78;4860239;29;19930;-64
2022/02/28 01:07:35;;;;;;;;;;;;;;;-2.87;68.86;103201.00;4859846;29;19924;-64
2022/02/28 01:10:00;;;;;;;;;;;;;;;-2.86;67.94;103197.53;4860357;29;19924;-61
2022/02/28 01:12:26;;;;;;;;;;;;;;;-2.87;68.28;103195.78;4860479;29;20036;-61
2022/02/28 01:14:51;;;;;;;;;;;;;;;-2.89;68.16;103196.66;4860450;29;19924;-64
2022/02/28 01:17:17;;;;;;;;;;;;;;;-2.91;69.24;103201.03;4860461;29;20324;-62
2022/02/28 01:19:42;;;;;;;;;;;;;;;-2.92;68.47;103202.78;4861303;29;19924;-60
2022/02/28 01:22:10;;;;;;;;;;;;;;;-2.89;68.32;103202.78;4862441;29;19928;-64
2022/02/28 01:24:38;;;;;;;;;;;;;;;-2.85;68.86;103204.47;4863089;29;19928;-62
2022/02/28 01:27:04;;;;;;;;;;;;;;;-2.82;68.99;103208.78;4846610;29;20008;-64
2022/02/28 01:29:30;;;;;;;;;;;;;;;-2.83;68.39;103207.06;4861788;29;19931;-62
2022/02/28 01:31:55;;;;;;;;;;;;;;;-2.77;68.52;103211.31;4860173;29;19924;-65
2022/02/28 01:34:20;;;;;;;;;;;;;;;-2.70;68.97;103212.97;4859944;29;20019;-65
2022/02/28 01:36:46;;;;;;;;;;;;;;;-2.65;68.56;103217.25;4860226;29;19960;-62
2022/02/28 01:39:11;;;;;;;;;;;;;;;-2.57;68.75;103211.97;4860279;29;20026;-63
2022/02/28 01:41:37;;;;;;;;;;;;;;;-2.45;67.99;103213.56;4843592;29;19928;-63
2022/02/28 01:44:06;;;;;;;;;;;;;;;-2.35;67.81;103210.78;4860009;29;19924;-63
2022/02/28 01:46:31;;;;;;;;;;;;;;;-2.22;67.92;103214.97;4859895;29;19924;-63
2022/02/28 01:48:56;;;;;;;;;;;;;;;-2.12;67.20;103218.31;4859897;29;20410;-63
2022/02/28 01:51:22;;;;;;;;;;;;;;;-2.00;67.40;103232.97;4860145;29;19924;-65
2022/02/28 01:53:47;;;;;;;;;;;;;;;-1.91;67.11;103232.81;4859926;29;19932;-64
2022/02/28 01:56:13;;;;;;;;;;;;;;;-1.83;66.70;103225.72;4860121;29;19924;-63
2022/02/28 01:58:38;;;;;;;;;;;;;;;-1.75;66.38;103223.00;4843161;29;19928;-62
2022/02/28 02:01:05;;;;;;;;;;;;;;;-1.70;66.69;103223.81;4859613;29;19928;-62
2022/02/28 02:03:31;;;;;;;;;;;;;;;-1.66;66.47;103221.13;4859460;29;20390;-62
2022/02/28 02:05:56;;;;;;;;;;;;;;;-1.63;66.37;103223.69;4860532;29;19959;-65
2022/02/28 02:08:22;;;;;;;;;;;;;;;-1.60;66.39;103222.78;4859864;29;20296;-65
2022/02/28 02:10:48;;;;;;;;;;;;;;;-1.54;65.85;103216.59;4859824;29;19967;-61
2022/02/28 02:13:13;;;;;;;;;;;;;;;-1.49;66.22;103220.84;4859740;29;19931;-62
2022/02/28 02:15:39;;;;;;;;;;;;;;;-1.43;65.84;103212.06;4843058;29;20442;-63
2022/02/28 02:18:05;;;;;;;;;;;;;;;-1.38;65.89;103202.38;4859535;29;19924;-66
2022/02/28 02:20:31;;;;;;;;;;;;;;;-1.38;66.54;103198.00;4861973;29;19980;-62
2022/02/28 02:22:58;;;;;;;;;;;;;;;-1.38;66.58;103195.41;4863304;29;19924;-63
2022/02/28 02:25:24;;;;;;;;;;;;;;;-1.39;66.46;103190.19;4863302;29;19928;-64
2022/02/28 02:27:49;;;;;;;;;;;;;;;-1.43;67.00;103178.94;4863251;29;20018;-62
2022/02/28 02:30:15;;;;;;;;;;;;;;;-1.47;67.24;103182.47;4863708;29;20407;-63
2022/02/28 02:32:40;;;;;;;;;;;;;;;-1.49;67.19;103180.78;4863096;29;20022;-62
2022/02/28 02:35:06;;;;;;;;;;;;;;;-1.47;66.77;103171.16;4863916;29;20295;-63
2022/02/28 02:37:31;;;;;;;;;;;;;;;-1.46;67.34;103172.88;4863156;29;19931;-60
2022/02/28 02:39:56;;;;;;;;;;;;;;;-1.52;67.62;103163.41;4862991;29;20277;-65
2022/02/28 02:42:22;;;;;;;;;;;;;;;-1.56;67.94;103170.44;4863041;29;19930;-64
2022/02/28 02:44:47;;;;;;;;;;;;;;;-1.54;67.62;103154.72;4863016;29;20027;-64
2022/02/28 02:47:13;;;;;;;;;;;;;;;-1.52;67.60;103146.84;4862659;29;19924;-64
2022/02/28 02:49:38;;;;;;;;;;;;;;;-1.50;67.35;103145.06;4862589;29;20453;-62
2022/02/28 02:52:04;;;;;;;;;;;;;;;-1.48;67.47;103145.91;4862897;29;19972;-65
2022/02/28 02:54:29;;;;;;;;;;;;;;;-1.47;67.41;103147.63;4862984;29;19968;-63
2022/02/28 02:56:54;;;;;;;;;;;;;;;-1.52;67.17;103154.69;4862937;29;20426;-63
2022/02/28 02:59:20;;;;;;;;;;;;;;;-1.59;67.76;103160.03;4862716;29;19924;-63
2022/02/28 03:01:46;;;;;;;;;;;;;;;-1.57;68.03;103160.00;4863061;29;19984;-63
2022/02/28 03:04:11;;;;;;;;;;;;;;;-1.58;67.69;103153.06;4862759;29;19924;-65
2022/02/28 03:06:37;;;;;;;;;;;;;;;-1.57;67.58;103160.88;4863354;29;19993;-61
2022/02/28 03:09:02;;;;;;;;;;;;;;;-1.63;68.59;103157.50;4862551;29;19924;-65
2022/02/28 03:11:27;;;;;;;;;;;;;;;-1.72;68.95;103155.06;4862356;29;20423;-63
2022/02/28 03:13:53;;;;;;;;;;;;;;;-1.73;69.19;103159.41;4862700;29;19927;-63
2022/02/28 03:16:18;;;;;;;;;;;;;;;-1.71;69.10;103162.88;4862580;29;20038;-63
2022/02/28 03:18:43;;;;;;;;;;;;;;;-1.67;69.57;103161.91;4862310;29;19980;-66
2022/02/28 03:21:09;;;;;;;;;;;;;;;-1.64;69.16;103154.03;4862498;29;19928;-63
2022/02/28 03:23:35;;;;;;;;;;;;;;;-1.61;69.35;103153.13;4862493;29;20296;-62
2022/02/28 03:26:01;;;;;;;;;;;;;;;-1.63;69.34;103145.31;4863622;29;19928;-65
2022/02/28 03:28:26;;;;;;;;;;;;;;;-1.64;69.48;103145.31;4864463;29;19935;-63
2022/02/28 03:30:52;;;;;;;;;;;;;;;-1.68;69.92;103141.91;4861365;29;19947;-64
2022/02/28 03:33:17;;;;;;;;;;;;;;;-1.68;69.92;103134.06;4863335;29;19995;-63
2022/02/28 03:35:42;;;;;;;;;;;;;;;-1.68;69.72;103139.28;4862782;29;19924;-61
2022/02/28 03:38:08;;;;;;;;;;;;;;;-1.73;70.07;103137.66;4861978;29;19935;-63
2022/02/28 03:40:33;;;;;;;;;;;;;;;-1.73;69.68;103127.22;4845563;29;20357;-62
2022/02/28 03:43:01;;;;;;;;;;;;;;;-1.75;69.61;103128.94;4862167;29;20409;-61
2022/02/28 03:45:27;;;;;;;;;;;;;;;-1.81;70.14;103119.47;4861758;29;19924;-63
2022/02/28 03:47:52;;;;;;;;;;;;;;;-1.86;70.46;103121.31;4861711;29;19935;-63
2022/02/28 03:50:17;;;;;;;;;;;;;;;-1.90;70.07;103110.06;4861657;29;20408;-62
2022/02/28 03:52:43;;;;;;;;;;;;;;;-1.95;70.40;103126.69;4845315;29;19924;-63
2022/02/28 03:55:09;;;;;;;;;;;;;;;-1.95;70.29;103126.69;4861918;29;19928;-62
2022/02/28 03:57:34;;;;;;;;;;;;;;;-1.89;70.17;103126.59;4861665;29;19924;-62
2022/02/28 04:00:00;;;;;;;;;;;;;;;-1.80;70.21;103130.78;4862056;29;20059;-65
2022/02/28 04:02:25;;;;;;;;;;;;;;;-1.78;69.89;103126.41;4861420;29;20341;-64
2022/02/28 04:04:51;;;;;;;;;;;;;;;-1.75;70.52;103126.34;4861630;29;19924;-63
2022/02/28 04:07:16;;;;;;;;;;;;;;;-1.73;70.47;103116.75;4861261;29;19980;-67
2022/02/28 04:09:42;;;;;;;;;;;;;;;-1.68;69.70;103115.78;4844808;29;20312;-65
2022/02/28 04:12:08;;;;;;;;;;;;;;;-1.68;70.30;103126.22;4844688;29;19989;-63
2022/02/28 04:14:34;;;;;;;;;;;;;;;-1.70;70.31;103116.69;4861370;29;19924;-63
2022/02/28 04:16:59;;;;;;;;;;;;;;;-1.77;70.66;103115.06;4861088;29;20292;-63
2022/02/28 04:19:24;;;;;;;;;;;;;;;-1.75;70.54;103115.88;4862913;29;19972;-64
2022/02/28 04:21:50;;;;;;;;;;;;;;;-1.71;70.49;103115.84;4844621;29;19924;-66
2022/02/28 04:24:15;;;;;;;;;;;;;;;-1.64;70.81;103116.59;4862193;29;19935;-63
2022/02/28 04:26:41;;;;;;;;;;;;;;;-1.63;70.33;103127.00;4861172;29;19943;-63
2022/02/28 04:29:06;;;;;;;;;;;;;;;-1.69;71.07;103119.28;4844605;29;20052;-76
2022/02/28 04:31:32;;;;;;;;;;;;;;;-1.75;71.35;103113.28;4861268;29;20403;-72
2022/02/28 04:33:57;;;;;;;;;;;;;;;-1.77;71.68;103105.47;4861133;29;19970;-61
2022/02/28 04:36:23;;;;;;;;;;;;;;;-1.72;70.97;103108.03;4861176;29;20022;-62
2022/02/28 04:38:48;;;;;;;;;;;;;;;-1.72;71.27;103113.25;4860923;29;19993;-63
2022/02/28 04:41:13;;;;;;;;;;;;;;;-1.69;71.54;103119.28;4861242;29;19932;-61
2022/02/28 04:43:39;;;;;;;;;;;;;;;-1.65;70.73;103126.19;4860477;29;19924;-61
2022/02/28 04:46:04;;;;;;;;;;;;;;;-1.68;71.25;103136.69;4860645;29;19930;-63
2022/02/28 04:48:30;;;;;;;;;;;;;;;-1.65;71.03;103126.19;4837882;29;19924;-62
2022/02/28 04:50:55;;;;;;;;;;;;;;;-1.61;70.63;103133.06;4856469;29;19934;-60
2022/02/28 04:53:22;;;;;;;;;;;;;;;-1.67;70.69;103137.53;4845920;29;19955;-61
2022/02/28 04:55:47;;;;;;;;;;;;;;;-1.68;70.72;103131.47;4860383;29;19931;-61
2022/02/28 04:58:12;;;;;;;;;;;;;;;-1.68;70.72;103136.69;4860606;29;19924;-61
2022/02/28 05:00:38;;;;;;;;;;;;;;;-1.74;70.99;103142.00;4845999;29;19924;-63
2022/02/28 05:03:04;;;;;;;;;;;;;;;-1.75;71.19;103132.44;4824920;29;19935;-63
2022/02/28 05:05:30;;;;;;;;;;;;;;;-1.74;70.57;103136.75;4809617;29;20420;-61
2022/02/28 05:07:55;;;;;;;;;;;;;;;-1.81;70.50;103134.28;4824870;29;19931;-63
2022/02/28 05:10:21;;;;;;;;;;;;;;;-1.80;70.65;103141.22;4809747;29;19944;-64
2022/02/28 05:12:47;;;;;;;;;;;;;;;-1.86;71.12;103139.59;4824359;29;20023;-61
2022/02/28 05:15:12;;;;;;;;;;;;;;;-1.84;71.25;103136.94;4840734;29;20003;-63
2022/02/28 05:17:38;;;;;;;;;;;;;;;-1.88;70.96;103150.06;4841487;29;19924;-63
2022/02/28 05:20:03;;;;;;;;;;;;;;;-1.84;71.01;103148.25;4824730;29;19975;-63
2022/02/28 05:22:29;;;;;;;;;;;;;;;-1.80;71.65;103144.72;4809757;29;19928;-64
2022/02/28 05:24:56;;;;;;;;;;;;;;;-1.77;71.36;103141.19;4820053;29;19928;-60
2022/02/28 05:27:22;;;;;;;;;;;;;;;-1.74;71.79;103147.22;4859713;29;19984;-60
2022/02/28 05:29:47;;;;;;;;;;;;;;;-1.78;71.71;103150.78;4860244;29;19924;-61
2022/02/28 05:32:13;;;;;;;;;;;;;;;-1.78;71.69;103140.31;4843057;29;19924;-61
2022/02/28 05:34:38;;;;;;;;;;;;;;;-1.75;72.04;103137.66;4860039;29;19928;-61
2022/02/28 05:37:06;;;;;;;;;;;;;;;-1.71;71.63;103130.66;4859659;29;20072;-61
2022/02/28 05:39:31;;;;;;;;;;;;;;;-1.69;71.37;103129.72;4841148;29;19924;-68
2022/02/28 05:41:56;;;;;;;;;;;;;;;-1.61;71.34;103132.22;4842172;29;19931;-66
2022/02/28 05:44:22;;;;;;;;;;;;;;;-1.63;70.90;103136.59;4827485;29;19924;-71
2022/02/28 05:46:48;;;;;;;;;;;;;;;-1.59;70.72;103136.50;4843239;29;20034;-65
2022/02/28 05:49:13;;;;;;;;;;;;;;;-1.58;70.77;103138.25;4859576;29;19963;-67
2022/02/28 05:51:38;;;;;;;;;;;;;;;-1.58;71.12;103148.69;4859366;29;19936;-66
2022/02/28 05:54:04;;;;;;;;;;;;;;;-1.68;71.58;103139.28;4859706;29;20026;-66
2022/02/28 05:56:29;;;;;;;;;;;;;;;-1.64;70.84;103135.75;4863050;29;20022;-67
2022/02/28 05:58:55;;;;;;;;;;;;;;;-1.62;71.11;103130.47;4864449;29;19924;-70
2022/02/28 06:01:24;;;;;;;;;;;;;;;-1.59;71.26;103141.75;4864743;29;19924;-71
2022/02/28 06:03:56;;;;;;;;;;;;;;;-1.63;71.68;103141.81;4863701;29;19976;-68
2022/02/28 06:06:21;;;;;;;;;;;;;;;-1.64;71.62;103137.50;4863923;29;19928;-64
2022/02/28 06:08:47;;;;;;;;;;;;;;;-1.68;71.70;103141.03;4863548;29;19928;-66
2022/02/28 06:11:12;;;;;;;;;;;;;;;-1.65;71.36;103146.22;4863554;29;19924;-67
2022/02/28 06:13:38;;;;;;;;;;;;;;;-1.61;71.97;103151.34;4863359;29;19979;-67
2022/02/28 06:16:03;;;;;;;;;;;;;;;-1.49;71.78;103152.03;4863427;29;19924;-69
2022/02/28 06:18:29;;;;;;;;;;;;;;;-1.45;71.60;103158.91;4846738;29;19973;-67
2022/02/28 06:20:54;;;;;;;;;;;;;;;-1.44;71.37;103147.59;4863110;29;19951;-71
2022/02/28 06:23:21;;;;;;;;;;;;;;;-1.31;71.17;103165.63;4863906;29;19928;-68
2022/02/28 06:25:48;;;;;;;;;;;;;;;-1.25;71.34;103156.81;4863156;29;19935;-68
2022/02/28 06:28:17;;;;;;;;;;;;;;;-1.18;70.71;103163.66;4847281;29;19935;-64
2022/02/28 06:30:43;;;;;;;;;;;;;;;-1.07;71.08;103161.72;4863691;29;19931;-70
2022/02/28 06:33:09;;;;;;;;;;;;;;;-0.95;70.36;103161.47;4846394;29;20003;-67
2022/02/28 06:35:35;;;;;;;;;;;;;;;-0.91;69.85;103156.16;4864530;29;19931;-69
2022/02/28 06:38:00;;;;;;;;;;;;;;;-1.03;69.96;103158.16;4863147;29;19924;-67
2022/02/28 06:40:25;;;;;;;;;;;;;;;-1.07;70.46;103161.72;4846044;29;19924;-64
2022/02/28 06:42:51;;;;;;;;;;;;;;;-0.96;70.41;103164.97;4862363;29;19924;-67
2022/02/28 06:45:17;;;;;;;;;;;;;;;-0.82;70.14;103151.63;4862411;29;20307;-66
2022/02/28 06:47:42;;;;;;;;;;;;;;;-0.75;69.38;103157.59;4862227;29;20463;-64
2022/02/28 06:50:08;;;;;;;;;;;;;;;-0.75;69.25;103148.00;4860931;29;20034;-64
2022/02/28 06:52:34;;;;;;;;;;;;;;;-0.71;69.17;103154.88;4844671;29;19924;-68
2022/02/28 06:54:59;;;;;;;;;;;;;;;-0.71;69.31;103165.34;4845478;29;19948;-69
2022/02/28 06:57:25;;;;;;;;;;;;;;;-0.79;69.55;103166.41;4861881;29;20031;-65
2022/02/28 06:59:50;;;;;;;;;;;;;;;-0.74;69.21;103170.66;4861804;29;19931;-66
2022/02/28 07:02:16;;;;;;;;;;;;;;;-0.71;69.27;103164.50;4845641;29;19924;-68
2022/02/28 07:05:07;;;;;;;;;;;;;;;-0.55;69.12;103165.91;4862197;29;20436;-66
2022/02/28 07:07:33;;;;;;;;;;;;;;;-0.38;68.56;103168.13;4844748;29;19931;-69
2022/02/28 07:09:59;;;;;;;;;;;;;;;-0.25;67.95;103158.28;4862865;29;20027;-67
2022/02/28 07:12:24;;;;;;;;;;;;;;;-0.26;68.15;103162.66;4846023;29;19924;-72
2022/02/28 07:14:50;;;;;;;;;;;;;;;-0.35;67.56;103163.69;4862639;29;19931;-68
2022/02/28 07:17:15;;;;;;;;;;;;;;;-0.29;68.27;103175.78;4862343;29;20292;-67
2022/02/28 07:19:41;;;;;;;;;;;;;;;-0.39;68.39;103169.91;4845577;29;19982;-67
2022/02/28 07:22:06;;;;;;;;;;;;;;;-0.34;68.54;103180.25;4863728;29;19924;-68
2022/02/28 07:24:32;;;;;;;;;;;;;;;-0.25;67.96;103171.38;4844684;29;20030;-68
2022/02/28 07:27:23;;;;;;;;;;;;;;;-0.23;68.26;103172.19;4862636;29;19935;-69
2022/02/28 07:29:48;;;;;;;;;;;;;;;-0.23;68.10;103173.06;4845505;29;19962;-67
2022/02/28 07:32:14;;;;;;;;;;;;;;;-0.21;67.80;103175.63;4862059;29;19947;-73
2022/02/28 07:34:39;;;;;;;;;;;;;;;-0.13;68.18;103168.47;4861887;29;19985;-68
2022/02/28 07:37:04;;;;;;;;;;;;;;;-0.12;67.74;103167.56;4846296;29;19924;-68
2022/02/28 07:39:31;;;;;;;;;;;;;;;-0.08;68.38;103172.69;4861998;29;19978;-68
2022/02/28 07:42:00;;;;;;;;;;;;;;;-0.04;67.92;103170.84;4863309;29;19935;-65
2022/02/28 07:44:25;;;;;;;;;;;;;;;-0.01;67.94;103170.78;4846862;29;19924;-66
2022/02/28 07:46:51;;;;;;;;;;;;;;;0.05;68.11;103173.28;4862015;29;19997;-69
2022/02/28 07:49:16;;;;;;;;;;;;;;;0.07;68.20;103176.72;4861557;29;19947;-67
2022/02/28 07:51:42;;;;;;;;;;;;;;;0.12;68.52;103189.72;4861548;29;19930;-63
2022/02/28 07:54:07;;;;;;;;;;;;;;;0.15;68.64;103193.13;4862328;29;19981;-65
2022/02/28 07:56:32;;;;;;;;;;;;;;;0.26;68.42;103196.34;4829690;29;19975;-67
2022/02/28 07:58:58;;;;;;;;;;;;;;;0.29;67.98;103204.16;4861718;29;20080;-70
2022/02/28 08:01:23;;;;;;;;;;;;;;;0.23;68.30;103199.03;4861824;29;19924;-69
2022/02/28 08:03:48;;;;;;;;;;;;;;;0.36;68.03;103190.91;4862603;29;19931;-68
2022/02/28 08:06:15;;;;;;;;;;;;;;;0.40;67.89;103190.78;4861381;29;20043;-69
2022/02/28 08:08:40;;;;;;;;;;;;;;;0.35;68.18;103197.03;4861669;29;20031;-67
2022/02/28 08:11:06;;;;;;;;;;;;;;;0.25;68.57;103201.63;4861532;29;19924;-70
2022/02/28 08:13:31;;;;;;;;;;;;;;;0.09;68.64;103198.50;4861523;29;20011;-70
2022/02/28 08:15:59;;;;;;;;;;;;;;;0.09;69.15;103195.88;4861355;29;19924;-68
2022/02/28 08:18:25;;;;;;;;;;;;;;;0.13;68.98;103196.69;4860793;29;20304;-66
2022/02/28 08:20:50;;;;;;;;;;;;;;;0.25;69.21;103201.63;4861260;29;19925;-68
2022/02/28 08:23:17;;;;;;;;;;;;;;;0.39;68.86;103196.06;4861200;29;19935;-72
2022/02/28 08:25:45;;;;;;;;;;;;;;;0.52;68.54;103198.31;4861498;29;20015;-71
2022/02/28 08:28:13;;;;;;;;;;;;;;;0.61;68.37;103199.88;4861289;29;19931;-69
2022/02/28 08:30:38;;;;;;;;;;;;;;;0.57;68.26;103190.34;4860925;29;19924;-68
2022/02/28 08:33:04;;;;;;;;;;;;;;;0.55;68.91;103194.75;4860851;29;20413;-66
2022/02/28 08:35:29;;;;;;;;;;;;;;;0.45;68.64;103198.53;4861041;29;19997;-66
2022/02/28 08:37:55;;;;;;;;;;;;;;;0.50;68.95;103194.00;4861022;29;19997;-69
2022/02/28 08:40:20;;;;;;;;;;;;;;;0.50;69.40;103192.25;4860907;29;20456;-72
2022/02/28 08:42:46;;;;;;;;;;;;;;;0.49;69.58;103195.78;4861615;29;19965;-71
2022/02/28 08:45:11;;;;;;;;;;;;;;;0.51;69.34;103190.50;4861129;29;19979;-71
2022/02/28 08:47:37;;;;;;;;;;;;;;;0.50;69.59;103204.50;4860935;29;20446;-71
2022/02/28 08:50:04;;;;;;;;;;;;;;;0.62;69.20;103201.59;4860946;29;20038;-76
2022/02/28 08:52:32;;;;;;;;;;;;;;;0.72;69.57;103205.69;4863696;29;19984;-69
2022/02/28 08:54:57;;;;;;;;;;;;;;;0.72;69.63;103208.31;4860782;29;20366;-70
2022/02/28 08:57:22;;;;;;;;;;;;;;;0.66;69.92;103198.00;4860750;29;19963;-68
2022/02/28 08:59:48;;;;;;;;;;;;;;;0.64;70.58;103202.41;4860722;29;19928;-64
2022/02/28 09:02:13;;;;;;;;;;;;;;;0.69;70.25;103207.53;4860471;29;19931;-64
2022/02/28 09:04:39;;;;;;;;;;;;;;;0.70;70.84;103204.88;4843930;29;19978;-66
2022/02/28 09:07:06;;;;;;;;;;;;;;;0.74;71.25;103205.66;4860578;29;19928;-67
2022/02/28 09:09:32;;;;;;;;;;;;;;;0.83;70.74;103208.88;4860135;29;20030;-66
2022/02/28 09:11:57;;;;;;;;;;;;;;;1.00;70.33;103204.97;4860403;29;20068;-69
2022/02/28 09:14:22;;;;;;;;;;;;;;;1.10;70.67;103191.53;4860436;29;19978;-68
2022/02/28 09:16:48;;;;;;;;;;;;;;;1.18;70.03;103201.84;4860322;29;19928;-66
2022/02/28 09:19:13;;;;;;;;;;;;;;;0.95;71.80;103198.97;4860491;29;19940;-71
2022/02/28 09:21:39;;;;;;;;;;;;;;;0.84;72.23;103202.72;4843950;29;19935;-66
2022/02/28 09:24:06;;;;;;;;;;;;;;;0.87;71.85;103199.19;4860590;29;19928;-64
2022/02/28 09:26:32;;;;;;;;;;;;;;;0.87;72.27;103210.56;4859730;29;19928;-66
2022/02/28 09:28:57;;;;;;;;;;;;;;;0.93;71.76;103207.75;4862936;29;19931;-71
2022/02/28 09:31:23;;;;;;;;;;;;;;;1.05;71.70;103216.19;4861379;29;20353;-71
2022/02/28 09:33:48;;;;;;;;;;;;;;;1.05;72.32;103210.94;4860462;29;19924;-70
2022/02/28 09:36:14;;;;;;;;;;;;;;;1.02;71.96;103211.03;4861080;29;19967;-67
2022/02/28 09:38:39;;;;;;;;;;;;;;;0.98;72.50;103212.88;4860103;29;19930;-65
2022/02/28 09:41:05;;;;;;;;;;;;;;;0.98;72.63;103209.41;4861128;29;19932;-64
2022/02/28 09:43:33;;;;;;;;;;;;;;;0.96;72.79;103201.56;4860623;29;19928;-62
2022/02/28 09:46:00;;;;;;;;;;;;;;;0.92;73.19;103197.31;4861319;29;19924;-64
2022/02/28 09:48:26;;;;;;;;;;;;;;;0.84;73.99;103199.25;4860554;29;20400;-59
2022/02/28 09:50:52;;;;;;;;;;;;;;;0.75;74.52;103187.25;4860592;29;19931;-63
2022/02/28 09:53:18;;;;;;;;;;;;;;;0.73;75.00;103194.28;4859795;29;20419;-62
2022/02/28 09:55:43;;;;;;;;;;;;;;;0.80;74.78;103203.72;4860138;29;19924;-66
2022/02/28 09:58:09;;;;;;;;;;;;;;;0.80;74.88;103198.47;4843302;29;19928;-65
2022/02/28 10:00:34;;;;;;;;;;;;;;;0.95;74.95;103198.97;4859899;29;19932;-68
2022/02/28 10:03:01;;;;;;;;;;;;;;;0.89;74.99;103193.00;4859610;29;19952;-69
2022/02/28 10:05:29;;;;;;;;;;;;;;;0.78;75.49;103208.16;4859404;29;19931;-66
2022/02/28 10:07:54;;;;;;;;;;;;;;;0.82;75.04;103209.78;4859440;29;19928;-66
2022/02/28 10:10:24;;;;;;;;;;;;;;;0.85;74.89;103212.31;4858997;29;20005;-65
2022/02/28 10:12:53;;;;;;;;;;;;;;;0.74;75.90;103205.66;4859412;29;19928;-71
2022/02/28 10:15:26;;;;;;;;;;;;;;;0.82;75.62;103204.53;4859789;29;19924;-65
2022/02/28 10:17:55;;;;;;;;;;;;;;;0.93;75.34;103202.50;4827752;29;19931;-65
2022/02/28 10:20:45;;;;;;;;;;;;;;;0.89;75.57;103202.63;4859576;29;19928;-71
2022/02/28 10:23:12;;;;;;;;;;;;;;;0.80;75.81;103203.72;4826956;29;19931;-64
2022/02/28 10:25:46;;;;;;;;;;;;;;;0.70;76.05;103211.88;4858735;29;20382;-68
2022/02/28 10:28:38;;;;;;;;;;;;;;;0.65;75.86;103203.28;4859268;29;20384;-65
2022/02/28 10:31:06;;;;;;;;;;;;;;;0.72;76.03;103208.31;4857069;29;19924;-67
2022/02/28 10:33:37;;;;;;;;;;;;;;;0.70;76.52;103210.13;4842899;29;19924;-63
2022/02/28 10:36:11;;;;;;;;;;;;;;;0.73;76.25;103210.03;4842122;29;20353;-65
2022/02/28 10:38:41;;;;;;;;;;;;;;;0.97;75.88;103205.06;4858931;29;19924;-67
2022/02/28 10:41:14;;;;;;;;;;;;;;;1.10;74.45;103204.66;4828643;29;19967;-64
2022/02/28 10:43:45;;;;;;;;;;;;;;;1.17;74.71;103214.13;4862859;29;19979;-68
2022/02/28 10:46:15;;;;;;;;;;;;;;;1.24;73.76;103212.16;4862542;29;19931;-71
2022/02/28 10:49:15;;;;;;;;;;;;;;;1.31;73.43;103207.59;4846137;29;20464;-66
2022/02/28 10:51:52;;;;;;;;;;;;;;;1.30;72.75;103206.75;4838766;29;19924;-66
2022/02/28 10:54:20;;;;;;;;;;;;;;;1.33;72.42;103216.28;4862270;29;19931;-69
2022/02/28 10:56:52;;;;;;;;;;;;;;;1.40;72.46;103213.44;4845591;29;20270;-68
2022/02/28 10:59:18;;;;;;;;;;;;;;;1.33;71.78;103184.78;4862390;29;19924;-64
2022/02/28 11:01:44;;;;;;;;;;;;;;;1.62;71.53;103212.84;4862529;29;20018;-66
2022/02/28 11:04:10;;;;;;;;;;;;;;;1.74;71.19;103212.50;4862190;29;19978;-68
2022/02/28 11:06:36;;;;;;;;;;;;;;;1.76;70.89;103215.94;4830504;29;19924;-69
2022/02/28 11:09:05;;;;;;;;;;;;;;;1.79;70.41;103221.94;4829780;29;20358;-70
2022/02/28 11:11:33;;;;;;;;;;;;;;;1.71;70.27;103217.81;4830189;29;19924;-65
2022/02/28 11:13:59;;;;;;;;;;;;;;;1.67;70.62;103216.19;4862554;29;19928;-66
2022/02/28 11:16:26;;;;;;;;;;;;;;;1.80;70.47;103217.56;4861859;29;19971;-69
2022/02/28 11:18:52;;;;;;;;;;;;;;;1.89;69.80;103219.03;4861866;29;19924;-71
2022/02/28 11:21:19;;;;;;;;;;;;;;;1.87;69.93;103216.44;4861878;29;19924;-72
2022/02/28 11:23:47;;;;;;;;;;;;;;;1.85;69.87;103223.53;4861696;29;19928;-65
2022/02/28 11:26:17;;;;;;;;;;;;;;;1.86;69.84;103220.00;4861140;29;20371;-66
2022/02/28 11:28:43;;;;;;;;;;;;;;;1.92;70.06;103222.41;4862119;29;19928;-66
2022/02/28 11:31:14;;;;;;;;;;;;;;;1.97;69.76;103217.88;4861714;29;19935;-67
2022/02/28 11:33:50;;;;;;;;;;;;;;;1.90;69.99;103224.25;4861622;29;19924;-70
2022/02/28 11:36:15;;;;;;;;;;;;;;;1.82;70.08;103218.38;4861783;29;19971;-70
2022/02/28 11:38:42;;;;;;;;;;;;;;;1.83;70.16;103222.72;4861599;29;19956;-67
2022/02/28 11:41:07;;;;;;;;;;;;;;;1.94;70.19;103217.13;4844816;29;20011;-64
2022/02/28 11:43:37;;;;;;;;;;;;;;;2.07;70.02;103227.22;4861626;29;20074;-69
2022/02/28 11:46:05;;;;;;;;;;;;;;;2.04;69.97;103226.47;4861029;29;19948;-63
2022/02/28 11:48:34;;;;;;;;;;;;;;;2.07;69.93;103224.59;4860608;29;20369;-67
2022/02/28 11:51:02;;;;;;;;;;;;;;;1.99;70.13;103229.19;4861317;29;19928;-63
2022/02/28 11:53:35;;;;;;;;;;;;;;;1.91;70.86;103230.34;4860341;29;19962;-69
2022/02/28 11:56:02;;;;;;;;;;;;;;;1.99;71.04;103223.94;4829117;29;20019;-60
2022/02/28 11:58:28;;;;;;;;;;;;;;;2.00;70.58;103224.81;4860956;29;19966;-65
2022/02/28 12:01:10;;;;;;;;;;;;;;;2.09;70.69;103220.16;4861179;29;20010;-69
2022/02/28 12:03:39;;;;;;;;;;;;;;;2.15;70.75;103217.31;4860566;29;19931;-65
2022/02/28 12:06:04;;;;;;;;;;;;;;;2.15;70.70;103219.94;4844801;29;19924;-62
2022/02/28 12:08:38;;;;;;;;;;;;;;;2.10;70.95;103227.13;4861253;29;19996;-62
2022/02/28 12:11:30;;;;;;;;;;;;;;;1.95;72.17;103217.06;4861975;29;19951;-67
2022/02/28 12:14:04;;;;;;;;;;;;;;;2.00;71.67;103219.56;4861508;29;20391;-67
2022/02/28 12:19:33;;;;;;;;;;;;;;;2.24;71.24;103212.66;4861694;29;19984;-62
2022/02/28 12:22:00;;;;;;;;;;;;;;;2.30;71.13;103212.47;4844669;29;19924;-61
2022/02/28 12:24:46;;;;;;;;;;;;;;;2.24;71.23;103217.94;4861305;29;19928;-60
2022/02/28 12:27:17;;;;;;;;;;;;;;;2.25;71.27;103214.38;4861349;29;19977;-66
2022/02/28 12:29:42;;;;;;;;;;;;;;;2.13;71.51;103213.88;4861713;29;19932;-66
2022/02/28 12:32:08;;;;;;;;;;;;;;;2.24;71.44;103215.31;4861541;29;19924;-62
2022/02/28 12:34:35;;;;;;;;;;;;;;;2.31;71.13;103214.19;4845689;29;19979;-62
2022/02/28 12:37:00;;;;;;;;;;;;;;;2.13;71.04;103169.19;4844538;29;19930;-67
2022/02/28 12:39:26;;;;;;;;;;;;;;;2.33;71.21;103213.25;4829506;29;20018;-63
2022/02/28 12:42:16;;;;;;;;;;;;;;;;;;;;;